This is the latest recevied weather packets stored in our database for station/object AK6OS. If no packets are shown the sender has not sent any weather packets the latest 10 day(s).
| Time | Temp. | Humidity | Pressure | Rain* | Wind** | Luminosity | Snow |
|---|---|---|---|---|---|---|---|
| 1777680916 | 17.22° C | 76% | 1015.3 hPa | 0 mm | - | 353 W/m² | - |
| 1777676717 | 17.22° C | 77% | 1015.8 hPa | 0 mm | - | 554 W/m² | - |
| 1777673718 | 16.67° C | 77% | 1016.4 hPa | 0 mm | - | 451 W/m² | - |
| 1777669516 | 17.78° C | 75% | 1016.5 hPa | 0 mm | - | 758 W/m² | - |
| 1777665917 | 18.89° C | 71% | 1016.4 hPa | 0 mm | - | 957 W/m² | - |
| 1777664118 | 18.33° C | 72% | 1016.9 hPa | 0 mm | - | 844 W/m² | - |
| 1777662918 | 16.67° C | 77% | 1017 hPa | 0 mm | - | 648 W/m² | - |
| 1777660518 | 16.11° C | 79% | 1017.3 hPa | 0 mm | - | 447 W/m² | - |
| 1777656917 | 15.56° C | 82% | 1017.4 hPa | 0 mm | - | 446 W/m² | - |
| 1777654518 | 15° C | 84% | 1017.5 hPa | 0 mm | - | 223 W/m² | - |
| 1777649116 | 12.78° C | 92% | 1017.2 hPa | 0 mm | - | 98 W/m² | - |
| 1777646717 | 12.22° C | 94% | 1016.8 hPa | 0 mm | - | 61 W/m² | - |
| 1777644319 | 12.22° C | 94% | 1016.6 hPa | 0 mm | - | 21 W/m² | - |
| 1777637117 | 11.67° C | 94% | 1015.7 hPa | 0 mm | - | 0 W/m² | - |
| 1777634138 | 12.22° C | 93% | 1015.4 hPa | 0 mm | - | 0 W/m² | - |
| 1777629317 | 12.22° C | 94% | 1015.4 hPa | 0 mm | - | 0 W/m² | - |
| 1777624517 | 12.22° C | 93% | 1015.8 hPa | 0 mm | - | 0 W/m² | - |
| 1777620339 | 11.67° C | 92% | 1016.3 hPa | 0 mm | - | 0 W/m² | - |
| 1777614337 | 12.78° C | 89% | 1016 hPa | 0 mm | - | 0 W/m² | - |
| 1777613717 | 12.78° C | 89% | 1016 hPa | 0 mm | - | 0 W/m² | - |
| 1777612518 | 12.78° C | 88% | 1015.9 hPa | 0 mm | - | 0 W/m² | - |
| 1777610718 | 13.33° C | 87% | 1015.9 hPa | 0 mm | - | 0 W/m² | - |
| 1777603517 | 16.11° C | 75% | 1014.3 hPa | 0 mm | - | 7 W/m² | - |
| 1777602937 | 16.67° C | 74% | 1014.2 hPa | 0 mm | - | 16 W/m² | - |
| 1777601118 | 18.33° C | 69% | 1013.9 hPa | 0 mm | - | 63 W/m² | - |
* Rain latest hour (hover to see other rain measurements)
** Current wind speed in m/s (hover to see current wind gust speed)